createdAt,value
2019-03-29T00:00:53.295Z,0.00
2019-03-29T00:01:53.092Z,0.00
2019-03-29T00:02:53.081Z,0.00
2019-03-29T00:03:53.277Z,0.00
2019-03-29T00:05:53.067Z,0.00
2019-03-29T00:06:53.674Z,0.00
2019-03-29T00:07:53.069Z,0.00
2019-03-29T00:09:53.046Z,0.00
2019-03-29T00:10:53.057Z,0.00
2019-03-29T00:12:53.031Z,0.00
2019-03-29T00:13:53.222Z,0.00
2019-03-29T00:14:53.022Z,0.00
2019-03-29T00:15:54.243Z,0.00
2019-03-29T00:17:53.002Z,0.00
2019-03-29T00:18:54.203Z,0.00
2019-03-29T00:19:54.127Z,0.00
2019-03-29T00:22:52.973Z,0.00
2019-03-29T00:24:05.940Z,0.00
2019-03-29T00:24:53.165Z,0.00
2019-03-29T00:25:52.955Z,0.00
2019-03-29T00:26:53.211Z,0.00
2019-03-29T00:27:52.948Z,0.00
2019-03-29T00:28:53.140Z,0.00
2019-03-29T00:29:52.937Z,0.00
2019-03-29T00:30:52.925Z,0.00
2019-03-29T00:31:52.921Z,0.00
2019-03-29T00:33:52.907Z,0.00
2019-03-29T00:34:52.903Z,0.00
2019-03-29T00:36:52.893Z,0.00
2019-03-29T00:37:54.945Z,0.00
2019-03-29T00:38:52.879Z,0.00
2019-03-29T00:39:53.075Z,0.00
2019-03-29T00:40:52.866Z,0.00
2019-03-29T00:41:52.864Z,0.00
2019-03-29T00:42:52.856Z,0.00
2019-03-29T00:45:52.841Z,0.00
2019-03-29T00:46:53.040Z,0.00
2019-03-29T00:47:52.827Z,0.00
2019-03-29T00:48:52.820Z,0.00
2019-03-29T00:51:52.803Z,0.00
2019-03-29T00:52:52.792Z,0.00
2019-03-29T00:53:52.790Z,0.00
2019-03-29T00:54:52.782Z,0.00
2019-03-29T00:55:52.782Z,0.00
2019-03-29T00:56:52.775Z,0.00
2019-03-29T00:58:52.761Z,0.00
2019-03-29T00:59:52.750Z,0.00
2019-03-29T01:00:52.741Z,0.00
2019-03-29T01:01:53.101Z,0.00
2019-03-29T01:02:52.730Z,0.00
2019-03-29T01:03:52.729Z,0.00
2019-03-29T01:05:52.713Z,0.00
2019-03-29T01:06:52.711Z,0.00
2019-03-29T01:08:06.716Z,0.00
2019-03-29T01:08:52.893Z,0.00
2019-03-29T01:09:52.691Z,0.00
2019-03-29T01:10:52.885Z,0.00
2019-03-29T01:11:52.671Z,0.00
2019-03-29T01:13:52.659Z,0.00
2019-03-29T01:14:52.659Z,0.00
2019-03-29T01:16:53.880Z,0.00
2019-03-29T01:17:52.639Z,0.00
2019-03-29T01:18:52.631Z,0.00
2019-03-29T01:19:52.620Z,0.00
2019-03-29T01:20:52.613Z,0.00
2019-03-29T01:21:52.610Z,0.00
2019-03-29T01:22:52.603Z,0.00
2019-03-29T01:23:52.599Z,0.00
2019-03-29T01:24:52.592Z,0.00
2019-03-29T01:25:52.791Z,0.00
2019-03-29T01:26:53.115Z,0.00
2019-03-29T01:27:52.782Z,0.00
2019-03-29T01:28:52.767Z,0.00
2019-03-29T01:29:52.558Z,0.00
2019-03-29T01:31:52.540Z,0.00
2019-03-29T01:33:52.529Z,0.00
2019-03-29T01:34:52.525Z,0.00
2019-03-29T01:36:53.199Z,0.00
2019-03-29T01:37:52.704Z,0.00
2019-03-29T01:38:52.494Z,0.00
2019-03-29T01:40:52.486Z,0.00
2019-03-29T01:41:53.092Z,0.00
2019-03-29T01:42:52.466Z,0.00
2019-03-29T01:44:53.229Z,0.00
2019-03-29T01:46:52.648Z,0.00
2019-03-29T01:47:52.435Z,0.00
2019-03-29T01:48:52.425Z,0.00
2019-03-29T01:49:52.429Z,0.00
2019-03-29T01:50:52.415Z,0.00
2019-03-29T01:51:53.921Z,0.00
2019-03-29T01:52:52.404Z,0.00
2019-03-29T01:53:52.397Z,0.00
2019-03-29T01:54:52.386Z,0.00
2019-03-29T01:55:52.390Z,0.00
2019-03-29T01:56:52.369Z,0.00
2019-03-29T01:57:52.567Z,0.00
2019-03-29T01:58:52.356Z,0.00
2019-03-29T01:59:52.354Z,0.00
2019-03-29T02:00:52.342Z,0.00
2019-03-29T02:02:52.330Z,0.00
2019-03-29T02:03:52.325Z,0.00
2019-03-29T02:04:52.319Z,0.00
2019-03-29T02:05:52.306Z,0.00
2019-03-29T02:06:52.304Z,0.00
2019-03-29T02:07:52.698Z,0.00
2019-03-29T02:08:52.292Z,0.00
2019-03-29T02:09:52.487Z,0.00
2019-03-29T02:12:52.256Z,0.00
2019-03-29T02:13:52.256Z,0.00
2019-03-29T02:14:52.249Z,0.00
2019-03-29T02:16:52.234Z,0.00
2019-03-29T02:17:52.427Z,0.00
2019-03-29T02:18:52.215Z,0.00
2019-03-29T02:19:52.410Z,0.00
2019-03-29T02:20:52.199Z,0.00
2019-03-29T02:21:52.193Z,0.00
2019-03-29T02:22:52.193Z,0.00
2019-03-29T02:24:52.172Z,0.00
2019-03-29T02:25:52.165Z,0.00
2019-03-29T02:26:52.159Z,0.00
2019-03-29T02:28:52.142Z,0.00
2019-03-29T02:30:52.133Z,0.00
2019-03-29T02:31:52.124Z,0.00
2019-03-29T02:33:53.347Z,0.00
2019-03-29T02:34:52.100Z,0.00
2019-03-29T02:35:52.312Z,0.00
2019-03-29T02:37:52.279Z,0.00
2019-03-29T02:38:55.460Z,0.00
2019-03-29T02:39:52.110Z,0.00
2019-03-29T02:43:52.047Z,0.00
2019-03-29T02:44:52.026Z,0.00
2019-03-29T02:46:53.510Z,0.00
2019-03-29T02:47:52.017Z,0.00
2019-03-29T02:48:52.005Z,0.00
2019-03-29T02:49:52.203Z,0.00
2019-03-29T02:51:53.184Z,0.00
2019-03-29T02:52:51.966Z,0.00
2019-03-29T02:53:51.965Z,0.00
2019-03-29T02:54:51.957Z,0.00
2019-03-29T02:55:51.944Z,0.00
2019-03-29T02:57:51.928Z,0.00
2019-03-29T02:58:53.150Z,0.00
2019-03-29T02:59:53.353Z,0.00
2019-03-29T03:00:51.913Z,0.00
2019-03-29T03:01:51.919Z,0.00
2019-03-29T03:02:51.896Z,0.00
2019-03-29T03:03:51.943Z,0.00
2019-03-29T03:05:51.874Z,0.00
2019-03-29T03:07:52.060Z,0.00
2019-03-29T03:08:51.854Z,0.00
2019-03-29T03:10:52.041Z,0.00
2019-03-29T03:11:52.033Z,0.00
2019-03-29T03:13:51.815Z,0.00
2019-03-29T03:14:52.012Z,0.00
2019-03-29T03:15:51.815Z,0.00
2019-03-29T03:17:51.779Z,0.00
2019-03-29T03:18:51.979Z,0.00
2019-03-29T03:19:51.768Z,0.00
2019-03-29T03:20:51.966Z,0.00
2019-03-29T03:21:51.755Z,0.00
2019-03-29T03:22:51.742Z,0.00
2019-03-29T03:23:51.739Z,0.00
2019-03-29T03:24:51.729Z,0.00
2019-03-29T03:25:52.926Z,0.00
2019-03-29T03:27:51.913Z,0.00
2019-03-29T03:29:51.898Z,0.00
2019-03-29T03:30:51.681Z,0.00
2019-03-29T03:31:51.674Z,0.00
2019-03-29T03:34:51.649Z,0.00
2019-03-29T03:35:51.644Z,0.00
2019-03-29T03:37:51.628Z,0.00
2019-03-29T03:38:52.833Z,0.00
2019-03-29T03:40:51.607Z,0.00
2019-03-29T03:42:51.587Z,0.00
2019-03-29T03:44:51.580Z,0.00
2019-03-29T03:45:51.774Z,0.00
2019-03-29T03:46:51.557Z,0.00
2019-03-29T03:47:51.552Z,0.00
2019-03-29T03:48:51.544Z,0.00
2019-03-29T03:50:24.743Z,0.00
2019-03-29T03:51:51.524Z,0.00
2019-03-29T03:53:51.506Z,0.00
2019-03-29T03:55:51.491Z,0.00
2019-03-29T03:56:51.705Z,0.00
2019-03-29T03:58:51.469Z,0.00
2019-03-29T03:59:51.663Z,0.00
2019-03-29T04:00:51.452Z,0.00
2019-03-29T04:02:51.453Z,0.00
2019-03-29T04:03:51.432Z,0.00
2019-03-29T04:04:51.621Z,0.00
2019-03-29T04:05:51.410Z,0.00
2019-03-29T04:06:51.408Z,0.00
2019-03-29T04:09:51.394Z,0.00
2019-03-29T04:10:51.380Z,0.00
2019-03-29T04:11:52.845Z,0.00
2019-03-29T04:12:51.363Z,0.00
2019-03-29T04:13:51.555Z,0.00
2019-03-29T04:14:51.347Z,0.00
2019-03-29T04:15:51.347Z,0.00
2019-03-29T04:16:51.322Z,0.00
2019-03-29T04:17:51.313Z,0.00
2019-03-29T04:18:51.517Z,0.00
2019-03-29T04:19:51.502Z,0.00
2019-03-29T04:21:51.284Z,0.00
2019-03-29T04:22:51.282Z,0.00
2019-03-29T04:23:51.270Z,0.00
2019-03-29T04:24:51.262Z,0.00
2019-03-29T04:25:51.281Z,0.00
2019-03-29T04:29:04.257Z,0.00
2019-03-29T04:29:51.223Z,0.00
2019-03-29T04:30:51.411Z,0.00
2019-03-29T04:31:52.413Z,0.00
2019-03-29T04:32:51.192Z,0.00
2019-03-29T04:33:51.193Z,0.00
2019-03-29T04:35:51.590Z,0.00
2019-03-29T04:36:52.383Z,0.00
2019-03-29T04:37:52.767Z,0.00
2019-03-29T04:38:51.156Z,0.00
2019-03-29T04:40:06.438Z,0.00
2019-03-29T04:41:51.129Z,0.00
2019-03-29T04:42:51.114Z,4.00
2019-03-29T04:43:51.117Z,4.00
2019-03-29T04:45:51.094Z,4.00
2019-03-29T04:47:51.087Z,4.00
2019-03-29T04:48:51.268Z,4.00
2019-03-29T04:50:51.056Z,8.00
2019-03-29T04:51:51.039Z,8.00
2019-03-29T04:52:51.039Z,12.00
2019-03-29T04:53:51.029Z,12.00
2019-03-29T04:54:51.022Z,16.00
2019-03-29T04:55:51.010Z,16.00
2019-03-29T04:56:51.008Z,24.00
2019-03-29T04:58:50.994Z,32.00
2019-03-29T04:59:51.380Z,36.00
2019-03-29T05:00:50.968Z,44.00
2019-03-29T05:02:51.155Z,56.00
2019-03-29T05:03:51.152Z,64.00
2019-03-29T05:04:50.942Z,76.00
2019-03-29T05:06:50.931Z,96.00
2019-03-29T05:07:50.915Z,108.00
2019-03-29T05:08:50.906Z,124.00
2019-03-29T05:09:50.896Z,140.00
2019-03-29T05:10:52.094Z,152.00
2019-03-29T05:12:50.876Z,188.00
2019-03-29T05:13:50.864Z,208.00
2019-03-29T05:14:51.064Z,224.00
2019-03-29T05:16:51.045Z,268.00
2019-03-29T05:17:50.842Z,292.00
2019-03-29T05:19:50.819Z,340.00
2019-03-29T05:20:50.812Z,364.00
2019-03-29T05:21:50.806Z,392.00
2019-03-29T05:22:50.798Z,416.00
2019-03-29T05:23:50.783Z,444.00
2019-03-29T05:24:50.777Z,472.00
2019-03-29T05:25:50.769Z,500.00
2019-03-29T05:26:50.765Z,532.00
2019-03-29T05:27:50.755Z,560.00
2019-03-29T05:28:50.744Z,592.00
2019-03-29T05:29:50.942Z,620.00
2019-03-29T05:30:50.728Z,652.00
2019-03-29T05:31:53.576Z,680.00
2019-03-29T05:33:50.709Z,740.00
2019-03-29T05:34:50.701Z,772.00
2019-03-29T05:35:50.688Z,804.00
2019-03-29T05:36:50.888Z,836.00
2019-03-29T05:38:50.663Z,908.00
2019-03-29T05:40:50.857Z,972.00
2019-03-29T05:42:50.633Z,1048.00
2019-03-29T05:44:51.835Z,1120.00
2019-03-29T05:45:50.609Z,1152.00
2019-03-29T05:46:50.607Z,1184.00
2019-03-29T05:49:50.587Z,1288.00
2019-03-29T05:50:50.569Z,1320.00
2019-03-29T05:51:50.566Z,1348.00
2019-03-29T05:52:50.758Z,1380.00
2019-03-29T05:55:50.533Z,1472.00
2019-03-29T05:56:50.523Z,1504.00
2019-03-29T05:57:50.512Z,1532.00
2019-03-29T05:59:50.495Z,1600.00
2019-03-29T06:00:50.489Z,1632.00
2019-03-29T06:01:50.684Z,1668.00
2019-03-29T06:02:50.482Z,1704.00
2019-03-29T06:03:50.472Z,1740.00
2019-03-29T06:07:50.439Z,1868.00
2019-03-29T06:08:50.427Z,1900.00
2019-03-29T06:09:50.425Z,1928.00
2019-03-29T06:11:50.611Z,1988.00
2019-03-29T06:12:50.406Z,2012.00
2019-03-29T06:14:50.387Z,2068.00
2019-03-29T06:15:50.378Z,2108.00
2019-03-29T06:16:50.368Z,2128.00
2019-03-29T06:17:50.359Z,2160.00
2019-03-29T06:18:50.559Z,2188.00
2019-03-29T06:19:50.419Z,2212.00
2019-03-29T06:20:50.339Z,2244.00
2019-03-29T06:21:50.331Z,2272.00
2019-03-29T06:23:50.524Z,2336.00
2019-03-29T06:24:50.315Z,2360.00
2019-03-29T06:25:50.305Z,2392.00
2019-03-29T06:26:50.503Z,2416.00
2019-03-29T06:27:50.293Z,2444.00
2019-03-29T06:28:50.481Z,2480.00
2019-03-29T06:30:50.266Z,2540.00
2019-03-29T06:31:50.258Z,2572.00
2019-03-29T06:33:50.252Z,2620.00
2019-03-29T06:34:50.247Z,2644.00
2019-03-29T06:35:50.229Z,2668.00
2019-03-29T06:37:50.219Z,2716.00
2019-03-29T06:38:50.211Z,2740.00
2019-03-29T06:39:50.411Z,2768.00
2019-03-29T06:41:02.209Z,2784.00
2019-03-29T06:41:50.196Z,2820.00
2019-03-29T06:42:50.190Z,2844.00
2019-03-29T06:46:50.360Z,2940.00
2019-03-29T06:47:50.152Z,2968.00
2019-03-29T06:48:51.359Z,2992.00
2019-03-29T06:49:50.143Z,3016.00
2019-03-29T06:50:50.203Z,3036.00
2019-03-29T06:52:50.117Z,3080.00
2019-03-29T06:54:50.111Z,3132.00
2019-03-29T06:55:50.102Z,3156.00
2019-03-29T06:56:50.098Z,3180.00
2019-03-29T06:58:50.079Z,3224.00
2019-03-29T06:59:50.080Z,3248.00
2019-03-29T07:00:50.673Z,3284.00
2019-03-29T07:01:50.271Z,3312.00
2019-03-29T07:03:50.052Z,3368.00
2019-03-29T07:04:50.042Z,3388.00
2019-03-29T07:06:50.239Z,3432.00
2019-03-29T07:07:50.224Z,3460.00
2019-03-29T07:08:51.230Z,3480.00
2019-03-29T07:09:50.011Z,3520.00
2019-03-29T07:11:50.407Z,3568.00
2019-03-29T07:12:49.996Z,3584.00
2019-03-29T07:13:57.434Z,3612.00
2019-03-29T07:14:49.990Z,3644.00
2019-03-29T07:16:49.974Z,3700.00
2019-03-29T07:17:50.178Z,3736.00
2019-03-29T07:18:49.965Z,3760.00
2019-03-29T07:19:50.360Z,3784.00
2019-03-29T07:20:50.359Z,3820.00
2019-03-29T07:21:49.949Z,3844.00
2019-03-29T07:23:50.133Z,3888.00
2019-03-29T07:25:50.327Z,3948.00
2019-03-29T07:26:49.918Z,3908.00
2019-03-29T07:28:49.904Z,3952.00
2019-03-29T07:29:49.898Z,3980.00
2019-03-29T07:31:53.082Z,4008.00
2019-03-29T07:32:50.085Z,4032.00
2019-03-29T07:33:49.888Z,4056.00
2019-03-29T07:34:49.871Z,4088.00
2019-03-29T07:35:50.481Z,4104.00
2019-03-29T07:37:49.861Z,4156.00
2019-03-29T07:38:50.262Z,4176.00
2019-03-29T07:39:49.847Z,4204.00
2019-03-29T07:40:49.847Z,4224.00
2019-03-29T07:41:49.841Z,4244.00
2019-03-29T07:43:50.438Z,4292.00
2019-03-29T07:45:49.818Z,4348.00
2019-03-29T07:47:50.211Z,4416.00
2019-03-29T07:48:49.801Z,4436.00
2019-03-29T07:49:49.798Z,4464.00
2019-03-29T07:51:49.987Z,4512.00
2019-03-29T07:52:49.781Z,4532.00
2019-03-29T07:54:49.774Z,4592.00
2019-03-29T07:55:49.762Z,4624.00
2019-03-29T07:57:49.760Z,4676.00
2019-03-29T07:58:49.757Z,4696.00
2019-03-29T07:59:49.882Z,4712.00
2019-03-29T08:00:49.740Z,4736.00
2019-03-29T08:01:50.142Z,4764.00
2019-03-29T08:02:49.736Z,4792.00
2019-03-29T08:03:51.342Z,4816.00
2019-03-29T08:04:51.125Z,4832.00
2019-03-29T08:05:49.719Z,4848.00
2019-03-29T08:07:49.710Z,4904.00
2019-03-29T08:08:49.710Z,4940.00
2019-03-29T08:09:49.710Z,4960.00
2019-03-29T08:10:52.059Z,4984.00
2019-03-29T08:12:49.865Z,5032.00
2019-03-29T08:15:49.672Z,5132.00
2019-03-29T08:16:49.672Z,5152.00
2019-03-29T08:17:49.666Z,5180.00
2019-03-29T08:18:49.861Z,5220.00
2019-03-29T08:20:12.847Z,5260.00
2019-03-29T08:21:49.849Z,5324.00
2019-03-29T08:22:49.852Z,5356.00
2019-03-29T08:23:49.674Z,5396.00
2019-03-29T08:24:49.837Z,5432.00
2019-03-29T08:25:49.634Z,5472.00
2019-03-29T08:26:49.630Z,5496.00
2019-03-29T08:27:49.819Z,5532.00
2019-03-29T08:28:49.619Z,5592.00
2019-03-29T08:29:49.613Z,5676.00
2019-03-29T08:30:49.812Z,5804.00
2019-03-29T08:31:49.605Z,5936.00
2019-03-29T08:32:49.808Z,6196.00
2019-03-29T08:33:49.666Z,6464.00
2019-03-29T08:34:49.605Z,6640.00
2019-03-29T08:35:49.592Z,5696.00
2019-03-29T08:36:49.593Z,7972.00
2019-03-29T08:37:49.785Z,5836.00
2019-03-29T08:38:49.588Z,6008.00
2019-03-29T08:39:49.580Z,6232.00
2019-03-29T08:40:49.572Z,8676.00
2019-03-29T08:41:59.461Z,5664.00
2019-03-29T08:43:49.567Z,6304.00
2019-03-29T08:44:49.558Z,7096.00
2019-03-29T08:45:49.556Z,9740.00
2019-03-29T08:46:49.962Z,12636.00
2019-03-29T08:49:49.542Z,4352.00
2019-03-29T08:51:49.541Z,10856.00
2019-03-29T08:52:49.532Z,6180.00
2019-03-29T08:56:50.749Z,6132.00
2019-03-29T08:57:49.722Z,6192.00
2019-03-29T08:58:49.524Z,6208.00
2019-03-29T08:59:49.509Z,6252.00
2019-03-29T09:00:49.712Z,6300.00
2019-03-29T09:02:49.511Z,6388.00
2019-03-29T09:04:49.495Z,6372.00
2019-03-29T09:05:49.899Z,6388.00
2019-03-29T09:06:53.707Z,6384.00
2019-03-29T09:07:49.487Z,6448.00
2019-03-29T09:09:50.718Z,6540.00
2019-03-29T09:10:49.698Z,6596.00
2019-03-29T09:11:49.480Z,6628.00
2019-03-29T09:12:49.675Z,6664.00
2019-03-29T09:13:49.469Z,6720.00
2019-03-29T09:15:49.470Z,6716.00
2019-03-29T09:16:49.470Z,6724.00
2019-03-29T09:17:49.460Z,6728.00
2019-03-29T09:18:49.665Z,6712.00
2019-03-29T09:19:49.453Z,6748.00
2019-03-29T09:20:49.659Z,6772.00
2019-03-29T09:21:49.451Z,6800.00
2019-03-29T09:23:49.449Z,6856.00
2019-03-29T09:27:49.432Z,6996.00
2019-03-29T09:28:49.438Z,7028.00
2019-03-29T09:31:22.642Z,7064.00
2019-03-29T09:31:49.427Z,7124.00
2019-03-29T09:32:51.446Z,7136.00
2019-03-29T09:33:49.621Z,7180.00
2019-03-29T09:34:49.618Z,7212.00
2019-03-29T09:35:49.619Z,7232.00
2019-03-29T09:36:49.411Z,7300.00
2019-03-29T09:38:49.409Z,7360.00
2019-03-29T09:40:58.287Z,7368.00
2019-03-29T09:41:49.404Z,7444.00
2019-03-29T09:42:55.732Z,7484.00
2019-03-29T09:43:49.396Z,7524.00
2019-03-29T09:44:49.606Z,7560.00
2019-03-29T09:45:49.601Z,7564.00
2019-03-29T09:47:49.387Z,7640.00
2019-03-29T09:48:49.394Z,7636.00
2019-03-29T09:50:50.902Z,7636.00
2019-03-29T09:51:50.605Z,7752.00
2019-03-29T09:54:49.382Z,8088.00
2019-03-29T09:55:49.376Z,8068.00
2019-03-29T09:56:49.574Z,8008.00
2019-03-29T09:57:49.376Z,8076.00
2019-03-29T09:58:49.375Z,8060.00
2019-03-29T09:59:49.569Z,8108.00
2019-03-29T10:00:49.381Z,8220.00
2019-03-29T10:03:49.769Z,8444.00
2019-03-29T10:04:49.363Z,8492.00
2019-03-29T10:06:49.357Z,8548.00
2019-03-29T10:07:49.556Z,8648.00
2019-03-29T10:08:49.362Z,8788.00
2019-03-29T10:09:49.350Z,8864.00
2019-03-29T10:11:49.350Z,8880.00
2019-03-29T10:12:49.345Z,8980.00
2019-03-29T10:14:49.348Z,9148.00
2019-03-29T10:15:51.385Z,9232.00
2019-03-29T10:16:49.342Z,9348.00
2019-03-29T10:18:22.749Z,9528.00
2019-03-29T10:18:49.339Z,9660.00
2019-03-29T10:21:49.334Z,9832.00
2019-03-29T10:22:49.337Z,9748.00
2019-03-29T10:23:50.561Z,9804.00
2019-03-29T10:24:49.536Z,10020.00
2019-03-29T10:25:49.328Z,9952.00
2019-03-29T10:27:49.333Z,10096.00
2019-03-29T10:29:50.560Z,10444.00
2019-03-29T10:30:49.325Z,10440.00
2019-03-29T10:31:49.330Z,10488.00
2019-03-29T10:32:49.330Z,10552.00
2019-03-29T10:33:49.549Z,10660.00
2019-03-29T10:35:52.517Z,11072.00
2019-03-29T10:36:49.331Z,11192.00
2019-03-29T10:40:49.335Z,11696.00
2019-03-29T10:41:49.345Z,12124.00
2019-03-29T10:42:57.548Z,12608.00
2019-03-29T10:43:49.351Z,13296.00
2019-03-29T10:44:49.753Z,14252.00
2019-03-29T10:45:49.547Z,15624.00
2019-03-29T10:50:49.370Z,57408.00
2019-03-29T10:51:49.577Z,60416.00
2019-03-29T10:52:49.376Z,62080.00
2019-03-29T10:53:49.383Z,61664.00
2019-03-29T10:54:50.129Z,60640.00
2019-03-29T10:55:49.795Z,58336.00
2019-03-29T10:57:49.399Z,60864.00
2019-03-29T10:58:49.806Z,59168.00
2019-03-29T10:59:49.409Z,59392.00
2019-03-29T11:00:49.417Z,59392.00
2019-03-29T11:01:49.418Z,60320.00
2019-03-29T11:02:49.424Z,60288.00
2019-03-29T11:03:49.436Z,61984.00
2019-03-29T11:04:49.440Z,62496.00
2019-03-29T11:05:49.446Z,61792.00
2019-03-29T11:06:49.453Z,61344.00
2019-03-29T11:07:49.460Z,58592.00
2019-03-29T11:08:49.463Z,58336.00
2019-03-29T11:09:49.668Z,61920.00
2019-03-29T11:10:49.476Z,63328.00
2019-03-29T11:11:49.492Z,63648.00
2019-03-29T11:12:49.691Z,64736.00
2019-03-29T11:13:49.696Z,64512.00
2019-03-29T11:14:49.503Z,68000.00
2019-03-29T11:15:49.507Z,67264.00
2019-03-29T11:16:49.516Z,69600.00
2019-03-29T11:20:49.552Z,73696.00
2019-03-29T11:21:49.559Z,73312.00
2019-03-29T11:23:49.575Z,73216.00
2019-03-29T11:25:49.799Z,70752.00
2019-03-29T11:27:49.607Z,64736.00
2019-03-29T11:29:49.824Z,59840.00
2019-03-29T11:33:49.854Z,61760.00
2019-03-29T11:34:49.664Z,61888.00
2019-03-29T11:35:49.668Z,62848.00
2019-03-29T11:36:52.384Z,65728.00
2019-03-29T11:37:49.688Z,66624.00
2019-03-29T11:38:49.707Z,67552.00
2019-03-29T11:39:49.706Z,66080.00
2019-03-29T11:40:49.920Z,64576.00
2019-03-29T11:41:50.130Z,66240.00
2019-03-29T11:43:49.753Z,64128.00
2019-03-29T11:44:49.760Z,62944.00
2019-03-29T11:47:49.987Z,64832.00
2019-03-29T11:48:49.801Z,66848.00
2019-03-29T11:49:52.857Z,66112.00
2019-03-29T11:50:50.019Z,66208.00
2019-03-29T11:52:49.835Z,68192.00
2019-03-29T11:53:51.150Z,68512.00
2019-03-29T11:56:49.879Z,67744.00
2019-03-29T11:58:23.303Z,67808.00
2019-03-29T12:00:50.329Z,68352.00
2019-03-29T12:01:49.938Z,71168.00
2019-03-29T12:02:50.153Z,74016.00
2019-03-29T12:03:49.960Z,74464.00
2019-03-29T12:04:49.975Z,74880.00
2019-03-29T12:05:49.978Z,74400.00
2019-03-29T12:06:51.195Z,76736.00
2019-03-29T12:07:50.007Z,78208.00
2019-03-29T12:08:50.017Z,78080.00
2019-03-29T12:09:50.027Z,76544.00
2019-03-29T12:11:50.051Z,76832.00
2019-03-29T12:12:50.269Z,74400.00
2019-03-29T12:15:53.142Z,72896.00
2019-03-29T12:20:54.192Z,73792.00
2019-03-29T12:22:50.396Z,71232.00
2019-03-29T12:25:51.451Z,70176.00
2019-03-29T12:27:50.454Z,68704.00
2019-03-29T12:28:50.470Z,67680.00
2019-03-29T12:29:50.279Z,67456.00
2019-03-29T12:30:50.298Z,67648.00
2019-03-29T12:31:50.714Z,68320.00
2019-03-29T12:32:50.523Z,69632.00
2019-03-29T12:33:50.333Z,69248.00
2019-03-29T12:37:50.385Z,66624.00
2019-03-29T12:38:50.439Z,64608.00
2019-03-29T12:44:50.476Z,65920.00
2019-03-29T12:45:50.493Z,64896.00
2019-03-29T12:46:50.515Z,65632.00
2019-03-29T12:47:50.518Z,66304.00
2019-03-29T12:48:50.944Z,63808.00
2019-03-29T12:51:50.578Z,62944.00
2019-03-29T12:52:50.584Z,64288.00
2019-03-29T12:54:50.822Z,64160.00
2019-03-29T12:57:38.897Z,64544.00
2019-03-29T12:59:36.438Z,63936.00
2019-03-29T13:01:39.762Z,61472.00
2019-03-29T13:02:36.480Z,63040.00
2019-03-29T13:03:36.897Z,63040.00
2019-03-29T13:04:36.716Z,64800.00
2019-03-29T13:05:36.518Z,63040.00
2019-03-29T13:07:36.755Z,64064.00
2019-03-29T13:08:36.563Z,64896.00
2019-03-29T13:10:36.594Z,65248.00
2019-03-29T13:11:36.805Z,65120.00
2019-03-29T13:12:36.623Z,65504.00
2019-03-29T13:15:36.864Z,65536.00
2019-03-29T13:17:36.892Z,66176.00
2019-03-29T13:18:36.914Z,66336.00
2019-03-29T13:20:36.738Z,66816.00
2019-03-29T13:21:38.891Z,66400.00
2019-03-29T13:22:36.763Z,65472.00
2019-03-29T13:26:37.020Z,61344.00
2019-03-29T13:27:37.040Z,59200.00
2019-03-29T13:29:36.866Z,57152.00
2019-03-29T13:30:37.281Z,55520.00
2019-03-29T13:31:36.893Z,56352.00
2019-03-29T13:32:37.318Z,54752.00
2019-03-29T13:33:36.921Z,56352.00
2019-03-29T13:34:36.936Z,55680.00
2019-03-29T13:35:36.949Z,55616.00
2019-03-29T13:36:36.964Z,55616.00
2019-03-29T13:38:36.997Z,57408.00
2019-03-29T13:40:37.023Z,58528.00
2019-03-29T13:44:37.077Z,56576.00
2019-03-29T13:46:37.512Z,56480.00
2019-03-29T13:47:37.322Z,55872.00
2019-03-29T13:48:37.135Z,54752.00
2019-03-29T13:50:37.162Z,53760.00
2019-03-29T13:52:37.190Z,54848.00
2019-03-29T13:53:37.412Z,55040.00
2019-03-29T13:54:37.222Z,55712.00
2019-03-29T13:55:37.235Z,54144.00
2019-03-29T13:57:37.263Z,53536.00
2019-03-29T14:00:37.301Z,53728.00
2019-03-29T14:02:37.731Z,51488.00
2019-03-29T14:05:37.376Z,49760.00
2019-03-29T14:06:37.580Z,48544.00
2019-03-29T14:08:37.612Z,47264.00
2019-03-29T14:10:37.434Z,46496.00
2019-03-29T14:11:37.443Z,46720.00
2019-03-29T14:13:26.878Z,47392.00
2019-03-29T14:14:37.605Z,46656.00
2019-03-29T14:15:26.914Z,49024.00
2019-03-29T14:18:26.944Z,53152.00
2019-03-29T14:21:26.986Z,47392.00
2019-03-29T14:22:27.006Z,47776.00
2019-03-29T14:23:27.093Z,46784.00
2019-03-29T14:24:27.234Z,44576.00
2019-03-29T14:26:27.060Z,42784.00
2019-03-29T14:27:27.073Z,42592.00
2019-03-29T14:28:27.081Z,41088.00
2019-03-29T14:29:27.099Z,39904.00
2019-03-29T14:30:27.115Z,40832.00
2019-03-29T14:31:27.126Z,40896.00
2019-03-29T14:32:27.141Z,40256.00
2019-03-29T14:34:27.171Z,40736.00
2019-03-29T14:35:27.383Z,40800.00
2019-03-29T14:36:27.190Z,41216.00
2019-03-29T14:38:27.215Z,39680.00
2019-03-29T14:39:27.438Z,39936.00
2019-03-29T14:40:27.449Z,40384.00
2019-03-29T14:42:27.268Z,41344.00
2019-03-29T14:45:00.509Z,40640.00
2019-03-29T14:45:27.309Z,40352.00
2019-03-29T14:46:27.329Z,39296.00
2019-03-29T14:47:39.663Z,38784.00
2019-03-29T14:49:27.360Z,38176.00
2019-03-29T14:50:27.379Z,37600.00
2019-03-29T14:51:27.389Z,37632.00
2019-03-29T14:54:48.129Z,36896.00
2019-03-29T14:55:47.310Z,36608.00
2019-03-29T14:58:48.159Z,35136.00
2019-03-29T14:59:46.953Z,35168.00
2019-03-29T15:00:48.796Z,34784.00
2019-03-29T15:01:47.392Z,34432.00
2019-03-29T15:02:47.193Z,34816.00
2019-03-29T15:03:47.010Z,35136.00
2019-03-29T15:04:47.224Z,34784.00
2019-03-29T15:05:47.035Z,34176.00
2019-03-29T15:06:47.042Z,33792.00
2019-03-29T15:07:47.061Z,32896.00
2019-03-29T15:08:49.761Z,32192.00
2019-03-29T15:09:47.081Z,32192.00
2019-03-29T15:13:47.338Z,31424.00
2019-03-29T15:14:47.146Z,31264.00
2019-03-29T15:15:47.162Z,31168.00
2019-03-29T15:18:47.190Z,30144.00
2019-03-29T15:19:47.201Z,29696.00
2019-03-29T15:20:53.624Z,28992.00
2019-03-29T15:22:47.846Z,28384.00
2019-03-29T15:23:47.252Z,27648.00
2019-03-29T15:24:47.264Z,26944.00
2019-03-29T15:26:47.292Z,25664.00
2019-03-29T15:28:47.310Z,25536.00
2019-03-29T15:29:47.325Z,24928.00
2019-03-29T15:30:47.333Z,24736.00
2019-03-29T15:33:47.370Z,24096.00
2019-03-29T15:34:47.382Z,23712.00
2019-03-29T15:35:47.595Z,22976.00
2019-03-29T15:37:47.617Z,22528.00
2019-03-29T15:38:47.633Z,22336.00
2019-03-29T15:39:47.643Z,22112.00
2019-03-29T15:43:20.684Z,21504.00
2019-03-29T15:43:47.690Z,20992.00
2019-03-29T15:45:47.513Z,20192.00
2019-03-29T15:49:55.855Z,19744.00
2019-03-29T15:50:47.976Z,19392.00
2019-03-29T15:51:47.582Z,19136.00
2019-03-29T15:52:47.590Z,18880.00
2019-03-29T15:53:47.805Z,18976.00
2019-03-29T15:54:47.616Z,19008.00
2019-03-29T15:55:47.618Z,18784.00
2019-03-29T15:56:47.835Z,18656.00
2019-03-29T15:57:47.849Z,18080.00
2019-03-29T15:58:47.649Z,17824.00
2019-03-29T16:00:47.679Z,17344.00
2019-03-29T16:01:47.687Z,17312.00
2019-03-29T16:02:47.694Z,17024.00
2019-03-29T16:03:47.712Z,16736.00
2019-03-29T16:05:48.563Z,16128.00
2019-03-29T16:06:47.746Z,15840.00
2019-03-29T16:07:47.757Z,15776.00
2019-03-29T16:08:47.762Z,15392.00
2019-03-29T16:10:48.592Z,14656.00
2019-03-29T16:11:47.995Z,14272.00
2019-03-29T16:12:47.804Z,14112.00
2019-03-29T16:13:47.814Z,13856.00
2019-03-29T16:14:48.025Z,13632.00
2019-03-29T16:15:48.044Z,13536.00
2019-03-29T16:16:47.853Z,13236.00
2019-03-29T16:17:47.862Z,13088.00
2019-03-29T16:18:47.864Z,12860.00
2019-03-29T16:19:47.886Z,12592.00
2019-03-29T16:21:47.903Z,8724.00
2019-03-29T16:23:47.922Z,4412.00
2019-03-29T16:24:47.926Z,4056.00
2019-03-29T16:25:47.938Z,3832.00
2019-03-29T16:27:47.951Z,3676.00
2019-03-29T16:28:49.181Z,3632.00
2019-03-29T16:31:21.186Z,3540.00
2019-03-29T16:31:48.188Z,3496.00
2019-03-29T16:32:47.990Z,3452.00
2019-03-29T16:35:49.218Z,3312.00
2019-03-29T16:36:48.013Z,3272.00
2019-03-29T16:37:57.150Z,3240.00
2019-03-29T16:38:48.030Z,3208.00
2019-03-29T16:39:48.032Z,3176.00
2019-03-29T16:40:48.233Z,3136.00
2019-03-29T16:41:48.245Z,3100.00
2019-03-29T16:42:48.248Z,3064.00
2019-03-29T16:43:48.044Z,3028.00
2019-03-29T16:46:21.260Z,2948.00
2019-03-29T16:46:48.261Z,2908.00
2019-03-29T16:47:48.062Z,2864.00
2019-03-29T16:48:48.275Z,2824.00